createdAt,value
2017-12-24T00:00:08.309Z,0.00
2017-12-24T00:02:01.571Z,0.00
2017-12-24T00:03:01.502Z,0.00
2017-12-24T00:04:54.786Z,0.00
2017-12-24T00:05:54.694Z,0.00
2017-12-24T00:07:47.983Z,0.00
2017-12-24T00:08:47.876Z,0.00
2017-12-24T00:10:41.141Z,0.00
2017-12-24T00:11:41.072Z,0.00
2017-12-24T00:13:34.394Z,0.00
2017-12-24T00:14:34.308Z,0.00
2017-12-24T00:16:27.562Z,0.00
2017-12-24T00:17:27.496Z,0.00
2017-12-24T00:19:20.775Z,0.00
2017-12-24T00:20:20.684Z,0.00
2017-12-24T00:22:13.948Z,0.00
2017-12-24T00:23:13.879Z,0.00
2017-12-24T00:25:07.161Z,0.00
2017-12-24T00:26:07.076Z,0.00
2017-12-24T00:28:00.396Z,0.00
2017-12-24T00:29:00.311Z,0.00
2017-12-24T00:30:53.559Z,0.00
2017-12-24T00:31:53.496Z,0.00
2017-12-24T00:33:46.770Z,0.00
2017-12-24T00:34:46.683Z,0.00
2017-12-24T00:36:39.943Z,0.00
2017-12-24T00:37:39.878Z,0.00
2017-12-24T00:39:33.160Z,0.00
2017-12-24T00:40:33.072Z,0.00
2017-12-24T00:42:26.378Z,0.00
2017-12-24T00:43:26.308Z,0.00
2017-12-24T00:45:19.591Z,0.00
2017-12-24T00:46:19.504Z,0.00
2017-12-24T00:48:12.888Z,0.00
2017-12-24T00:49:12.694Z,0.00
2017-12-24T00:51:06.063Z,0.00
2017-12-24T00:52:05.886Z,0.00
2017-12-24T00:53:59.165Z,0.00
2017-12-24T00:54:59.078Z,0.00
2017-12-24T00:56:52.376Z,0.00
2017-12-24T00:57:52.307Z,0.00
2017-12-24T00:59:45.578Z,0.00
2017-12-24T01:00:45.493Z,0.00
2017-12-24T01:02:38.752Z,0.00
2017-12-24T01:03:38.683Z,0.00
2017-12-24T01:05:31.964Z,0.00
2017-12-24T01:06:31.910Z,0.00
2017-12-24T01:08:25.157Z,0.00
2017-12-24T01:09:25.071Z,0.00
2017-12-24T01:11:18.376Z,0.00
2017-12-24T01:12:18.305Z,0.00
2017-12-24T01:14:11.587Z,0.00
2017-12-24T01:15:11.503Z,0.00
2017-12-24T01:17:04.762Z,0.00
2017-12-24T01:18:04.693Z,0.00
2017-12-24T01:19:57.961Z,0.00
2017-12-24T01:20:57.879Z,0.00
2017-12-24T01:22:51.134Z,0.00
2017-12-24T01:23:51.068Z,0.00
2017-12-24T01:25:44.396Z,0.00
2017-12-24T01:26:44.308Z,0.00
2017-12-24T01:28:37.590Z,0.00
2017-12-24T01:29:37.501Z,0.00
2017-12-24T01:31:30.751Z,0.00
2017-12-24T01:32:30.688Z,0.00
2017-12-24T01:34:23.971Z,0.00
2017-12-24T01:35:23.872Z,0.00
2017-12-24T01:37:17.242Z,0.00
2017-12-24T01:38:17.068Z,0.00
2017-12-24T01:40:10.402Z,0.00
2017-12-24T01:41:10.310Z,0.00
2017-12-24T01:43:03.572Z,0.00
2017-12-24T01:44:03.504Z,0.00
2017-12-24T01:45:56.783Z,0.00
2017-12-24T01:46:56.695Z,0.00
2017-12-24T01:48:49.974Z,0.00
2017-12-24T01:49:49.888Z,0.00
2017-12-24T01:51:43.149Z,0.00
2017-12-24T01:52:43.082Z,0.00
2017-12-24T01:54:36.397Z,0.00
2017-12-24T01:55:36.311Z,0.00
2017-12-24T01:57:29.568Z,0.00
2017-12-24T01:58:29.508Z,0.00
2017-12-24T02:00:22.782Z,0.00
2017-12-24T02:01:22.696Z,0.00
2017-12-24T02:03:16.064Z,0.00
2017-12-24T02:04:15.891Z,0.00
2017-12-24T02:06:09.174Z,0.00
2017-12-24T02:07:09.084Z,0.00
2017-12-24T02:09:02.396Z,0.00
2017-12-24T02:10:02.312Z,0.00
2017-12-24T02:11:55.571Z,0.00
2017-12-24T02:12:55.509Z,0.00
2017-12-24T02:14:48.892Z,0.00
2017-12-24T02:15:48.695Z,0.00
2017-12-24T02:17:41.956Z,0.00
2017-12-24T02:18:41.889Z,0.00
2017-12-24T02:20:35.167Z,0.00
2017-12-24T02:21:35.084Z,0.00
2017-12-24T02:23:28.371Z,0.00
2017-12-24T02:24:28.309Z,0.00
2017-12-24T02:26:21.697Z,0.00
2017-12-24T02:27:21.501Z,0.00
2017-12-24T02:29:14.777Z,0.00
2017-12-24T02:30:14.687Z,0.00
2017-12-24T02:32:07.948Z,0.00
2017-12-24T02:33:07.879Z,0.00
2017-12-24T02:35:01.267Z,0.00
2017-12-24T02:36:01.074Z,0.00
2017-12-24T02:37:54.380Z,0.00
2017-12-24T02:38:54.311Z,0.00
2017-12-24T02:40:47.700Z,0.00
2017-12-24T02:41:47.504Z,0.00
2017-12-24T02:43:40.763Z,0.00
2017-12-24T02:44:40.696Z,0.00
2017-12-24T02:46:34.082Z,0.00
2017-12-24T02:47:33.889Z,0.00
2017-12-24T02:49:27.277Z,0.00
2017-12-24T02:50:27.072Z,0.00
2017-12-24T02:52:20.380Z,0.00
2017-12-24T02:53:20.312Z,0.00
2017-12-24T02:55:13.595Z,0.00
2017-12-24T02:56:13.516Z,0.00
2017-12-24T02:58:06.765Z,0.00
2017-12-24T02:59:06.698Z,0.00
2017-12-24T03:01:00.087Z,0.00
2017-12-24T03:01:59.893Z,0.00
2017-12-24T03:03:53.154Z,0.00
2017-12-24T03:04:53.087Z,0.00
2017-12-24T03:06:46.400Z,0.00
2017-12-24T03:07:46.314Z,0.00
2017-12-24T03:09:39.583Z,0.00
2017-12-24T03:10:39.498Z,0.00
2017-12-24T03:12:32.758Z,0.00
2017-12-24T03:13:32.691Z,0.00
2017-12-24T03:15:25.968Z,0.00
2017-12-24T03:16:25.883Z,0.00
2017-12-24T03:18:19.144Z,0.00
2017-12-24T03:19:19.077Z,0.00
2017-12-24T03:21:12.402Z,0.00
2017-12-24T03:22:12.308Z,0.00
2017-12-24T03:24:05.679Z,0.00
2017-12-24T03:25:05.503Z,0.00
2017-12-24T03:26:58.891Z,0.00
2017-12-24T03:27:58.702Z,0.00
2017-12-24T03:29:51.965Z,0.00
2017-12-24T03:30:51.882Z,0.00
2017-12-24T03:32:45.143Z,0.00
2017-12-24T03:33:45.075Z,0.00
2017-12-24T03:35:38.396Z,0.00
2017-12-24T03:36:38.309Z,0.00
2017-12-24T03:38:31.678Z,0.00
2017-12-24T03:39:31.507Z,0.00
2017-12-24T03:41:24.784Z,0.00
2017-12-24T03:42:24.699Z,0.00
2017-12-24T03:44:17.956Z,0.00
2017-12-24T03:45:17.889Z,0.00
2017-12-24T03:47:11.168Z,0.00
2017-12-24T03:48:11.084Z,0.00
2017-12-24T03:50:04.401Z,0.00
2017-12-24T03:51:04.312Z,0.00
2017-12-24T03:52:57.573Z,0.00
2017-12-24T03:53:57.506Z,0.00
2017-12-24T03:55:50.941Z,0.00
2017-12-24T03:56:50.699Z,0.00
2017-12-24T03:58:43.959Z,0.00
2017-12-24T03:59:43.891Z,0.00
2017-12-24T04:01:37.174Z,0.00
2017-12-24T04:02:37.089Z,0.00
2017-12-24T04:04:30.378Z,0.00
2017-12-24T04:05:30.307Z,0.00
2017-12-24T04:07:23.588Z,0.00
2017-12-24T04:08:23.501Z,0.00
2017-12-24T04:10:16.782Z,0.00
2017-12-24T04:11:16.694Z,0.00
2017-12-24T04:13:09.955Z,0.00
2017-12-24T04:14:09.888Z,0.00
2017-12-24T04:16:03.168Z,0.00
2017-12-24T04:17:03.083Z,0.00
2017-12-24T04:18:56.376Z,0.00
2017-12-24T04:19:56.311Z,0.00
2017-12-24T04:21:49.590Z,0.00
2017-12-24T04:22:49.504Z,0.00
2017-12-24T04:24:42.769Z,0.00
2017-12-24T04:25:42.699Z,0.00
2017-12-24T04:27:35.979Z,0.00
2017-12-24T04:28:35.893Z,0.00
2017-12-24T04:30:29.177Z,0.00
2017-12-24T04:31:29.087Z,0.00
2017-12-24T04:33:22.376Z,0.00
2017-12-24T04:34:22.308Z,0.00
2017-12-24T04:36:15.587Z,0.00
2017-12-24T04:37:15.501Z,0.00
2017-12-24T04:39:08.764Z,0.00
2017-12-24T04:40:08.697Z,0.00
2017-12-24T04:42:01.975Z,0.00
2017-12-24T04:43:01.888Z,0.00
2017-12-24T04:44:55.150Z,0.00
2017-12-24T04:45:55.082Z,0.00
2017-12-24T04:47:48.396Z,0.00
2017-12-24T04:48:48.308Z,0.00
2017-12-24T04:50:41.588Z,0.00
2017-12-24T04:51:41.502Z,0.00
2017-12-24T04:53:34.763Z,0.00
2017-12-24T04:54:34.696Z,0.00
2017-12-24T04:56:27.978Z,0.00
2017-12-24T04:57:27.889Z,0.00
2017-12-24T04:59:21.259Z,0.00
2017-12-24T05:00:21.072Z,0.00
2017-12-24T05:02:14.351Z,0.00
2017-12-24T05:03:14.266Z,0.00
2017-12-24T05:05:07.525Z,0.00
2017-12-24T05:06:07.459Z,0.00
2017-12-24T05:08:00.733Z,0.00
2017-12-24T05:09:00.656Z,0.00
2017-12-24T05:10:53.932Z,0.00
2017-12-24T05:11:53.844Z,0.00
2017-12-24T05:13:47.214Z,0.00
2017-12-24T05:14:47.038Z,0.00
2017-12-24T05:16:40.396Z,0.00
2017-12-24T05:17:40.307Z,0.00
2017-12-24T05:19:33.678Z,0.00
2017-12-24T05:20:33.500Z,0.00
2017-12-24T05:22:26.782Z,0.00
2017-12-24T05:23:26.693Z,0.00
2017-12-24T05:25:19.954Z,0.00
2017-12-24T05:26:19.886Z,0.00
2017-12-24T05:28:13.273Z,0.00
2017-12-24T05:29:13.079Z,0.00
2017-12-24T05:31:06.395Z,0.00
2017-12-24T05:32:06.309Z,0.00
2017-12-24T05:33:59.577Z,0.00
2017-12-24T05:34:59.499Z,0.00
2017-12-24T05:36:52.780Z,0.00
2017-12-24T05:37:52.694Z,0.00
2017-12-24T05:39:46.065Z,0.00
2017-12-24T05:40:45.880Z,0.00
2017-12-24T05:42:39.164Z,0.00
2017-12-24T05:43:39.077Z,0.00
2017-12-24T05:45:32.377Z,0.00
2017-12-24T05:46:32.308Z,0.00
2017-12-24T05:48:25.592Z,0.00
2017-12-24T05:49:25.503Z,0.00
2017-12-24T05:51:18.891Z,0.00
2017-12-24T05:52:18.695Z,0.00
2017-12-24T05:54:11.959Z,0.00
2017-12-24T05:55:11.891Z,0.00
2017-12-24T05:57:05.171Z,0.00
2017-12-24T05:58:05.081Z,0.00
2017-12-24T05:59:58.378Z,0.00
2017-12-24T06:00:58.313Z,0.00
2017-12-24T06:02:51.590Z,0.00
2017-12-24T06:03:51.503Z,0.00
2017-12-24T06:05:44.873Z,0.00
2017-12-24T06:06:44.697Z,0.00
2017-12-24T06:08:37.980Z,0.00
2017-12-24T06:09:37.894Z,0.00
2017-12-24T06:11:31.173Z,0.00
2017-12-24T06:12:31.088Z,0.00
2017-12-24T06:14:24.379Z,0.00
2017-12-24T06:15:24.309Z,0.00
2017-12-24T06:17:17.595Z,0.00
2017-12-24T06:18:17.506Z,0.00
2017-12-24T06:20:10.754Z,0.00
2017-12-24T06:21:10.686Z,0.00
2017-12-24T06:23:03.976Z,0.00
2017-12-24T06:24:03.880Z,0.00
2017-12-24T06:25:57.146Z,0.00
2017-12-24T06:26:57.074Z,0.00
2017-12-24T06:28:50.396Z,0.00
2017-12-24T06:29:50.311Z,0.00
2017-12-24T06:31:43.589Z,0.00
2017-12-24T06:32:43.504Z,0.00
2017-12-24T06:34:36.766Z,0.00
2017-12-24T06:35:36.700Z,0.00
2017-12-24T06:37:29.978Z,0.00
2017-12-24T06:38:29.891Z,0.00
2017-12-24T06:40:23.153Z,0.00
2017-12-24T06:41:23.141Z,0.00
2017-12-24T06:43:16.395Z,0.00
2017-12-24T06:44:16.308Z,0.00
2017-12-24T06:46:09.677Z,0.00
2017-12-24T06:47:09.503Z,0.00
2017-12-24T06:49:02.888Z,0.00
2017-12-24T06:50:02.693Z,0.00
2017-12-24T06:51:55.974Z,0.00
2017-12-24T06:52:55.889Z,0.00
2017-12-24T06:54:49.156Z,0.00
2017-12-24T06:55:49.086Z,0.00
2017-12-24T06:57:42.397Z,0.00
2017-12-24T06:58:42.309Z,0.00
2017-12-24T07:00:35.570Z,0.00
2017-12-24T07:01:35.504Z,0.00
2017-12-24T07:03:28.889Z,0.00
2017-12-24T07:04:28.695Z,0.00
2017-12-24T07:06:21.959Z,0.00
2017-12-24T07:07:21.891Z,0.00
2017-12-24T07:09:15.174Z,4.00
2017-12-24T07:10:15.089Z,4.00
2017-12-24T07:12:08.394Z,0.00
2017-12-24T07:13:08.307Z,0.00
2017-12-24T07:15:01.569Z,4.00
2017-12-24T07:16:01.499Z,4.00
2017-12-24T07:17:54.774Z,8.00
2017-12-24T07:18:54.691Z,8.00
2017-12-24T07:20:48.065Z,8.00
2017-12-24T07:21:47.890Z,8.00
2017-12-24T07:23:41.275Z,8.00
2017-12-24T07:24:41.082Z,12.00
2017-12-24T07:26:34.376Z,12.00
2017-12-24T07:27:34.308Z,12.00
2017-12-24T07:29:27.590Z,16.00
2017-12-24T07:30:27.501Z,16.00
2017-12-24T07:32:20.782Z,16.00
2017-12-24T07:33:20.696Z,16.00
2017-12-24T07:35:13.958Z,16.00
2017-12-24T07:36:13.890Z,16.00
2017-12-24T07:38:07.278Z,20.00
2017-12-24T07:39:07.086Z,24.00
2017-12-24T07:41:00.452Z,24.00
2017-12-24T07:42:00.308Z,28.00
2017-12-24T07:43:53.588Z,32.00
2017-12-24T07:44:53.500Z,36.00
2017-12-24T07:46:46.762Z,40.00
2017-12-24T07:47:46.695Z,40.00
2017-12-24T07:49:39.986Z,52.00
2017-12-24T07:50:39.899Z,52.00
2017-12-24T07:52:33.178Z,52.00
2017-12-24T07:53:33.091Z,64.00
2017-12-24T07:55:26.380Z,80.00
2017-12-24T07:56:26.310Z,80.00
2017-12-24T07:58:19.589Z,72.00
2017-12-24T07:59:19.500Z,84.00
2017-12-24T08:01:12.766Z,92.00
2017-12-24T08:02:12.698Z,92.00
2017-12-24T08:04:06.087Z,116.00
2017-12-24T08:05:05.892Z,120.00
2017-12-24T08:06:59.157Z,104.00
2017-12-24T08:07:59.088Z,96.00
2017-12-24T08:09:52.398Z,100.00
2017-12-24T08:10:52.311Z,100.00
2017-12-24T08:12:45.588Z,104.00
2017-12-24T08:13:45.504Z,116.00
2017-12-24T08:15:38.765Z,124.00
2017-12-24T08:16:38.696Z,148.00
2017-12-24T08:18:32.980Z,208.00
2017-12-24T08:19:32.895Z,208.00
2017-12-24T08:21:26.158Z,220.00
2017-12-24T08:22:26.088Z,212.00
2017-12-24T08:24:19.476Z,248.00
2017-12-24T08:25:19.282Z,256.00
2017-12-24T08:27:12.543Z,252.00
2017-12-24T08:28:12.477Z,240.00
2017-12-24T08:30:05.760Z,252.00
2017-12-24T08:31:05.691Z,248.00
2017-12-24T08:32:58.944Z,280.00
2017-12-24T08:33:58.864Z,248.00
2017-12-24T08:35:52.123Z,296.00
2017-12-24T08:36:52.056Z,280.00
2017-12-24T08:38:45.334Z,336.00
2017-12-24T08:39:45.250Z,308.00
2017-12-24T08:41:38.515Z,348.00
2017-12-24T08:42:38.446Z,320.00
2017-12-24T08:44:31.727Z,344.00
2017-12-24T08:45:31.635Z,400.00
2017-12-24T08:47:24.892Z,440.00
2017-12-24T08:48:24.830Z,440.00
2017-12-24T08:50:18.222Z,392.00
2017-12-24T08:51:18.025Z,412.00
2017-12-24T08:53:11.413Z,472.00
2017-12-24T08:54:11.216Z,488.00
2017-12-24T08:56:04.480Z,484.00
2017-12-24T08:57:04.413Z,480.00
2017-12-24T08:58:57.690Z,436.00
2017-12-24T08:59:57.605Z,496.00
2017-12-24T09:01:50.862Z,504.00
2017-12-24T09:02:50.801Z,508.00
2017-12-24T09:04:44.075Z,512.00
2017-12-24T09:05:43.989Z,568.00
2017-12-24T09:07:37.251Z,632.00
2017-12-24T09:08:37.185Z,580.00
2017-12-24T09:10:30.463Z,676.00
2017-12-24T09:11:30.379Z,644.00
2017-12-24T09:13:23.657Z,584.00
2017-12-24T09:14:23.569Z,588.00
2017-12-24T09:16:16.830Z,612.00
2017-12-24T09:17:16.762Z,560.00
2017-12-24T09:19:10.041Z,632.00
2017-12-24T09:20:09.955Z,752.00
2017-12-24T09:22:03.217Z,632.00
2017-12-24T09:23:03.148Z,656.00
2017-12-24T09:24:56.424Z,752.00
2017-12-24T09:25:56.342Z,684.00
2017-12-24T09:27:49.709Z,768.00
2017-12-24T09:28:49.533Z,724.00
2017-12-24T09:30:42.812Z,624.00
2017-12-24T09:31:42.727Z,660.00
2017-12-24T09:33:36.114Z,764.00
2017-12-24T09:34:35.948Z,632.00
2017-12-24T09:36:29.212Z,748.00
2017-12-24T09:37:29.141Z,736.00
2017-12-24T09:39:22.422Z,812.00
2017-12-24T09:40:22.336Z,796.00
2017-12-24T09:42:15.596Z,812.00
2017-12-24T09:43:15.530Z,752.00
2017-12-24T09:45:08.809Z,756.00
2017-12-24T09:46:08.725Z,848.00
2017-12-24T09:48:02.095Z,816.00
2017-12-24T09:49:01.918Z,796.00
2017-12-24T09:50:55.212Z,820.00
2017-12-24T09:51:55.113Z,856.00
2017-12-24T09:53:48.396Z,832.00
2017-12-24T09:54:48.309Z,836.00
2017-12-24T09:56:41.572Z,740.00
2017-12-24T09:57:41.502Z,740.00
2017-12-24T09:59:34.776Z,820.00
2017-12-24T10:00:34.687Z,724.00
2017-12-24T10:02:27.953Z,792.00
2017-12-24T10:03:27.882Z,784.00
2017-12-24T10:05:21.266Z,736.00
2017-12-24T10:06:21.074Z,728.00
2017-12-24T10:08:14.377Z,764.00
2017-12-24T10:09:14.308Z,716.00
2017-12-24T10:11:07.591Z,892.00
2017-12-24T10:12:07.504Z,768.00
2017-12-24T10:14:00.787Z,748.00
2017-12-24T10:15:00.702Z,696.00
2017-12-24T10:16:53.961Z,808.00
2017-12-24T10:17:53.890Z,724.00
2017-12-24T10:19:47.172Z,888.00
2017-12-24T10:20:47.087Z,960.00
2017-12-24T10:22:40.379Z,932.00
2017-12-24T10:23:40.309Z,880.00
2017-12-24T10:25:33.589Z,824.00
2017-12-24T10:26:33.503Z,688.00
2017-12-24T10:28:26.763Z,1028.00
2017-12-24T10:29:26.700Z,1096.00
2017-12-24T10:31:19.482Z,884.00
2017-12-24T10:32:19.395Z,720.00
2017-12-24T10:34:12.673Z,792.00
2017-12-24T10:35:12.588Z,784.00
2017-12-24T10:37:05.850Z,820.00
2017-12-24T10:38:05.781Z,792.00
2017-12-24T10:39:59.062Z,728.00
2017-12-24T10:40:58.976Z,784.00
2017-12-24T10:42:52.239Z,660.00
2017-12-24T10:43:52.177Z,600.00
2017-12-24T10:45:45.449Z,720.00
2017-12-24T10:46:45.362Z,768.00
2017-12-24T10:48:38.635Z,1004.00
2017-12-24T10:49:38.565Z,876.00
2017-12-24T10:51:31.845Z,816.00
2017-12-24T10:52:31.759Z,772.00
2017-12-24T10:54:25.037Z,836.00
2017-12-24T10:55:24.947Z,908.00
2017-12-24T10:57:18.210Z,924.00
2017-12-24T10:58:18.142Z,880.00
2017-12-24T11:00:12.414Z,788.00
2017-12-24T11:01:12.325Z,984.00
2017-12-24T11:03:06.591Z,1008.00
2017-12-24T11:04:06.521Z,968.00
2017-12-24T11:05:59.799Z,916.00
2017-12-24T11:06:59.711Z,804.00
2017-12-24T11:08:52.993Z,868.00
2017-12-24T11:09:52.904Z,900.00
2017-12-24T11:11:46.183Z,924.00
2017-12-24T11:12:46.096Z,1044.00
2017-12-24T11:14:39.373Z,1056.00
2017-12-24T11:15:39.288Z,988.00
2017-12-24T11:17:32.553Z,1072.00
2017-12-24T11:18:32.481Z,872.00
2017-12-24T11:20:25.815Z,744.00
2017-12-24T11:21:25.724Z,716.00
2017-12-24T11:23:18.983Z,752.00
2017-12-24T11:24:18.916Z,720.00
2017-12-24T11:26:12.197Z,932.00
2017-12-24T11:27:12.109Z,940.00
2017-12-24T11:29:05.367Z,812.00
2017-12-24T11:30:05.305Z,752.00
2017-12-24T11:31:58.577Z,820.00
2017-12-24T11:32:58.489Z,756.00
2017-12-24T11:34:51.771Z,740.00
2017-12-24T11:35:51.689Z,708.00
2017-12-24T11:37:44.944Z,600.00
2017-12-24T11:38:44.880Z,632.00
2017-12-24T11:40:38.157Z,512.00
2017-12-24T11:41:38.071Z,548.00
2017-12-24T11:43:31.333Z,580.00
2017-12-24T11:44:31.263Z,548.00
2017-12-24T11:46:24.545Z,572.00
2017-12-24T11:47:24.458Z,512.00
2017-12-24T11:49:17.716Z,560.00
2017-12-24T11:50:17.646Z,576.00
2017-12-24T11:52:10.926Z,692.00
2017-12-24T11:53:10.836Z,700.00
2017-12-24T11:55:04.108Z,660.00
2017-12-24T11:56:04.018Z,632.00
2017-12-24T11:57:57.268Z,616.00
2017-12-24T11:58:57.200Z,624.00
2017-12-24T12:00:50.466Z,664.00
2017-12-24T12:01:50.377Z,688.00
2017-12-24T12:03:43.637Z,724.00
2017-12-24T12:04:43.569Z,748.00
2017-12-24T12:06:36.893Z,692.00
2017-12-24T12:07:36.762Z,684.00
2017-12-24T12:09:30.012Z,744.00
2017-12-24T12:10:29.943Z,716.00
2017-12-24T12:12:23.220Z,752.00
2017-12-24T12:13:23.132Z,692.00
2017-12-24T12:15:16.401Z,888.00
2017-12-24T12:16:16.318Z,900.00
2017-12-24T12:18:09.562Z,840.00
2017-12-24T12:19:09.492Z,744.00
2017-12-24T12:21:02.815Z,800.00
2017-12-24T12:22:02.672Z,900.00
2017-12-24T12:23:55.921Z,780.00
2017-12-24T12:24:55.851Z,848.00
2017-12-24T12:26:50.121Z,880.00
2017-12-24T12:27:50.032Z,744.00
2017-12-24T12:29:43.282Z,816.00
2017-12-24T12:30:43.213Z,800.00
2017-12-24T12:32:36.598Z,784.00
2017-12-24T12:33:36.395Z,832.00
2017-12-24T12:35:29.666Z,712.00
2017-12-24T12:36:29.575Z,668.00
2017-12-24T12:38:22.943Z,788.00
2017-12-24T12:39:22.768Z,832.00
2017-12-24T12:41:16.045Z,732.00
2017-12-24T12:42:15.956Z,776.00
2017-12-24T12:44:09.204Z,668.00
2017-12-24T12:45:09.135Z,628.00
2017-12-24T12:47:02.524Z,604.00
2017-12-24T12:48:02.328Z,596.00
2017-12-24T12:49:55.694Z,612.00
2017-12-24T12:50:55.510Z,576.00
2017-12-24T12:52:48.784Z,628.00
2017-12-24T12:53:48.693Z,588.00
2017-12-24T12:55:41.970Z,604.00
2017-12-24T12:56:41.885Z,620.00
2017-12-24T12:58:35.154Z,684.00
2017-12-24T12:59:35.086Z,624.00
2017-12-24T13:01:28.406Z,604.00
2017-12-24T13:02:28.312Z,764.00
2017-12-24T13:04:21.559Z,836.00
2017-12-24T13:05:21.488Z,672.00
2017-12-24T13:07:14.761Z,772.00
2017-12-24T13:08:14.670Z,684.00
2017-12-24T13:10:08.070Z,612.00
2017-12-24T13:11:07.861Z,692.00
2017-12-24T13:13:01.123Z,596.00
2017-12-24T13:14:01.031Z,532.00
2017-12-24T13:15:54.394Z,540.00
2017-12-24T13:16:54.313Z,552.00
2017-12-24T13:18:47.558Z,488.00
2017-12-24T13:19:47.489Z,460.00
2017-12-24T13:21:40.757Z,424.00
2017-12-24T13:22:40.669Z,436.00
2017-12-24T13:24:33.922Z,392.00
2017-12-24T13:25:33.914Z,388.00
2017-12-24T13:27:27.249Z,352.00
2017-12-24T13:28:27.041Z,340.00
2017-12-24T13:30:20.407Z,360.00
2017-12-24T13:31:20.309Z,372.00
2017-12-24T13:33:13.582Z,384.00
2017-12-24T13:34:13.492Z,348.00
2017-12-24T13:36:06.764Z,340.00
2017-12-24T13:37:06.672Z,316.00
2017-12-24T13:38:59.926Z,328.00
2017-12-24T13:39:59.855Z,352.00
2017-12-24T13:41:53.120Z,368.00
2017-12-24T13:42:53.032Z,344.00
2017-12-24T13:44:46.380Z,360.00
2017-12-24T13:45:46.310Z,428.00
2017-12-24T13:47:39.582Z,400.00
2017-12-24T13:48:39.494Z,384.00
2017-12-24T13:50:32.863Z,472.00
2017-12-24T13:51:32.676Z,356.00
2017-12-24T13:53:25.942Z,420.00
2017-12-24T13:54:25.854Z,360.00
2017-12-24T13:56:19.122Z,312.00
2017-12-24T13:57:19.038Z,360.00
2017-12-24T13:59:12.407Z,360.00
2017-12-24T14:00:12.315Z,320.00
2017-12-24T14:02:05.583Z,360.00
2017-12-24T14:03:05.494Z,352.00
2017-12-24T14:04:58.751Z,308.00
2017-12-24T14:05:58.675Z,312.00
2017-12-24T14:07:52.063Z,272.00
2017-12-24T14:08:51.856Z,352.00
2017-12-24T14:10:45.241Z,408.00
2017-12-24T14:11:45.038Z,352.00
2017-12-24T14:13:38.400Z,232.00
2017-12-24T14:14:38.309Z,224.00
2017-12-24T14:16:31.595Z,228.00
2017-12-24T14:17:31.487Z,228.00
2017-12-24T14:19:24.861Z,312.00
2017-12-24T14:20:24.676Z,288.00
2017-12-24T14:22:17.948Z,236.00
2017-12-24T14:23:17.863Z,220.00
2017-12-24T14:25:11.113Z,232.00
2017-12-24T14:26:11.045Z,208.00
2017-12-24T14:28:04.401Z,232.00
2017-12-24T14:29:04.312Z,172.00
2017-12-24T14:30:57.719Z,184.00
2017-12-24T14:31:57.497Z,184.00
2017-12-24T14:33:50.742Z,144.00
2017-12-24T14:34:50.674Z,172.00
2017-12-24T14:36:43.942Z,176.00
2017-12-24T14:37:43.853Z,152.00
2017-12-24T14:39:37.108Z,128.00
2017-12-24T14:40:37.040Z,132.00
2017-12-24T14:42:30.927Z,104.00
2017-12-24T14:43:30.311Z,108.00
2017-12-24T14:45:23.680Z,104.00
2017-12-24T14:46:23.491Z,100.00
2017-12-24T14:48:17.876Z,88.00
2017-12-24T14:49:17.673Z,92.00
2017-12-24T14:51:10.952Z,76.00
2017-12-24T14:52:10.866Z,84.00
2017-12-24T14:54:04.115Z,92.00
2017-12-24T14:55:04.046Z,80.00
2017-12-24T14:56:57.315Z,64.00
2017-12-24T14:57:57.240Z,64.00
2017-12-24T14:59:50.480Z,64.00
2017-12-24T15:00:50.409Z,72.00
2017-12-24T15:02:43.685Z,76.00
2017-12-24T15:03:43.593Z,68.00
2017-12-24T15:05:36.964Z,48.00
2017-12-24T15:06:36.775Z,52.00
2017-12-24T15:08:31.044Z,60.00
2017-12-24T15:09:30.955Z,64.00
2017-12-24T15:11:24.226Z,60.00
2017-12-24T15:12:24.136Z,52.00
2017-12-24T15:14:17.397Z,48.00
2017-12-24T15:15:17.329Z,44.00
2017-12-24T15:17:10.600Z,40.00
2017-12-24T15:18:10.511Z,40.00
2017-12-24T15:20:03.765Z,40.00
2017-12-24T15:21:03.693Z,36.00
2017-12-24T15:22:56.974Z,28.00
2017-12-24T15:23:56.887Z,28.00
2017-12-24T15:25:50.144Z,24.00
2017-12-24T15:26:50.078Z,24.00
2017-12-24T15:28:43.357Z,20.00
2017-12-24T15:29:43.271Z,16.00
2017-12-24T15:31:36.559Z,8.00
2017-12-24T15:32:36.464Z,16.00
2017-12-24T15:34:29.724Z,8.00
2017-12-24T15:35:29.657Z,8.00
2017-12-24T15:37:22.926Z,8.00
2017-12-24T15:38:22.839Z,4.00
2017-12-24T15:40:16.101Z,4.00
2017-12-24T15:41:16.037Z,4.00
2017-12-24T15:43:09.310Z,4.00
2017-12-24T15:44:09.223Z,4.00
2017-12-24T15:46:02.539Z,0.00
2017-12-24T15:47:02.416Z,0.00
2017-12-24T15:48:55.817Z,4.00
2017-12-24T15:49:55.610Z,4.00
2017-12-24T15:51:48.887Z,4.00
2017-12-24T15:52:48.801Z,4.00
2017-12-24T15:54:42.113Z,0.00
2017-12-24T15:55:41.997Z,0.00
2017-12-24T15:57:35.286Z,0.00
2017-12-24T15:58:35.198Z,0.00
2017-12-24T16:00:28.564Z,0.00
2017-12-24T16:01:28.426Z,0.00
2017-12-24T16:03:21.660Z,0.00
2017-12-24T16:04:21.576Z,0.00
2017-12-24T16:06:14.825Z,0.00
2017-12-24T16:07:14.755Z,0.00
2017-12-24T16:09:08.143Z,0.00
2017-12-24T16:10:07.938Z,0.00
2017-12-24T16:12:01.326Z,0.00
2017-12-24T16:13:01.130Z,0.00
2017-12-24T16:14:54.392Z,0.00
2017-12-24T16:15:54.325Z,0.00
2017-12-24T16:17:47.603Z,0.00
2017-12-24T16:18:47.518Z,0.00
2017-12-24T16:20:40.779Z,0.00
2017-12-24T16:21:40.708Z,0.00
2017-12-24T16:23:33.990Z,0.00
2017-12-24T16:24:33.901Z,0.00
2017-12-24T16:26:27.165Z,0.00
2017-12-24T16:27:27.094Z,0.00
2017-12-24T16:29:20.362Z,0.00
2017-12-24T16:30:20.279Z,0.00
2017-12-24T16:32:13.557Z,0.00
2017-12-24T16:33:13.472Z,0.00
2017-12-24T16:35:06.843Z,0.00
2017-12-24T16:36:06.663Z,0.00
2017-12-24T16:37:59.961Z,0.00
2017-12-24T16:38:59.868Z,0.00
2017-12-24T16:40:53.118Z,0.00
2017-12-24T16:41:53.049Z,0.00
2017-12-24T16:43:46.403Z,0.00
2017-12-24T16:44:46.314Z,0.00
2017-12-24T16:46:39.566Z,0.00
2017-12-24T16:47:39.495Z,0.00
2017-12-24T16:49:32.885Z,0.00
2017-12-24T16:50:32.676Z,0.00
2017-12-24T16:52:25.962Z,0.00
2017-12-24T16:53:25.874Z,0.00
2017-12-24T16:55:20.138Z,0.00
2017-12-24T16:56:20.067Z,0.00
2017-12-24T16:58:13.347Z,0.00
2017-12-24T16:59:13.267Z,0.00
2017-12-24T17:01:07.369Z,0.00
2017-12-24T17:02:07.300Z,0.00
2017-12-24T17:04:00.570Z,0.00
2017-12-24T17:05:00.483Z,0.00
2017-12-24T17:06:53.735Z,0.00
2017-12-24T17:07:53.664Z,0.00
2017-12-24T17:09:46.948Z,0.00
2017-12-24T17:10:46.864Z,0.00
2017-12-24T17:12:40.141Z,0.00
2017-12-24T17:13:40.054Z,0.00
2017-12-24T17:15:33.314Z,0.00
2017-12-24T17:16:33.245Z,0.00
2017-12-24T17:18:26.636Z,0.00
2017-12-24T17:19:26.439Z,0.00
2017-12-24T17:21:19.698Z,0.00
2017-12-24T17:22:19.633Z,0.00
2017-12-24T17:24:13.020Z,0.00
2017-12-24T17:25:12.825Z,0.00
2017-12-24T17:27:06.086Z,0.00
2017-12-24T17:28:06.017Z,0.00
2017-12-24T17:29:59.407Z,0.00
2017-12-24T17:30:59.208Z,0.00
2017-12-24T17:32:52.482Z,0.00
2017-12-24T17:33:52.396Z,0.00
2017-12-24T17:35:45.656Z,0.00
2017-12-24T17:36:45.588Z,0.00
2017-12-24T17:38:38.868Z,0.00
2017-12-24T17:39:38.781Z,0.00
2017-12-24T17:41:32.043Z,0.00
2017-12-24T17:42:31.974Z,0.00
2017-12-24T17:44:25.259Z,0.00
2017-12-24T17:45:25.167Z,0.00
2017-12-24T17:47:19.427Z,0.00
2017-12-24T17:48:19.360Z,0.00
2017-12-24T17:50:12.631Z,0.00
2017-12-24T17:51:12.543Z,0.00
2017-12-24T17:53:05.824Z,0.00
2017-12-24T17:54:05.738Z,0.00
2017-12-24T17:55:58.998Z,0.00
2017-12-24T17:56:58.934Z,0.00
2017-12-24T17:58:52.214Z,0.00
2017-12-24T17:59:52.136Z,0.00
2017-12-24T18:01:45.385Z,0.00
2017-12-24T18:02:45.319Z,0.00
2017-12-24T18:04:38.596Z,0.00
2017-12-24T18:05:38.510Z,0.00
2017-12-24T18:07:31.776Z,0.00
2017-12-24T18:08:31.707Z,0.00
2017-12-24T18:10:24.986Z,0.00
2017-12-24T18:11:24.899Z,0.00
2017-12-24T18:13:18.179Z,0.00
2017-12-24T18:14:18.091Z,0.00
2017-12-24T18:16:11.459Z,0.00
2017-12-24T18:17:11.283Z,0.00
2017-12-24T18:19:04.563Z,0.00
2017-12-24T18:20:04.479Z,0.00
2017-12-24T18:21:57.742Z,0.00
2017-12-24T18:22:57.668Z,0.00
2017-12-24T18:24:50.949Z,0.00
2017-12-24T18:25:50.865Z,0.00
2017-12-24T18:27:44.115Z,0.00
2017-12-24T18:28:44.046Z,0.00
2017-12-24T18:30:37.329Z,0.00
2017-12-24T18:31:37.238Z,0.00
2017-12-24T18:33:30.530Z,0.00
2017-12-24T18:34:30.431Z,0.00
2017-12-24T18:36:23.694Z,0.00
2017-12-24T18:37:23.627Z,0.00
2017-12-24T18:39:17.908Z,0.00
2017-12-24T18:40:17.807Z,0.00
2017-12-24T18:42:11.062Z,0.00